Time;durP1;ratioP1;P1;durP2;ratioP2;P2;SDS_P1;SDS_P2;PMS_P1;PMS_P2;Temp;Humidity;BMP_temperature;BMP_pressure;BME280_temperature;BME280_humidity;BME280_pressure;Samples;Min_cycle;Max_cycle;Signal;HPM_P1;HPM_P2
2022/02/15 00:00:44;;;;;;;82.03;12.50;;;;;;;;;;4990861;28;20045;-36
2022/02/15 00:03:11;;;;;;;111.43;15.85;;;;;;;;;;4978292;28;20498;-39
2022/02/15 00:05:38;;;;;;;121.15;16.45;;;;;;;;;;4992317;28;20032;-38
2022/02/15 00:08:05;;;;;;;126.38;17.58;;;;;;;;;;4992101;28;20046;-36
2022/02/15 00:10:32;;;;;;;143.25;17.63;;;;;;;;;;4991868;28;20042;-37
2022/02/15 00:13:02;;;;;;;123.80;17.75;;;;;;;;;;4973349;28;20544;-36
2022/02/15 00:15:29;;;;;;;115.03;17.17;;;;;;;;;;4990783;28;20568;-34
2022/02/15 00:17:57;;;;;;;145.70;18.70;;;;;;;;;;4989260;28;20022;-37
2022/02/15 00:20:24;;;;;;;107.68;15.80;;;;;;;;;;4991141;28;20474;-36
2022/02/15 00:22:51;;;;;;;147.15;20.33;;;;;;;;;;4990997;28;20053;-36
2022/02/15 00:25:20;;;;;;;163.75;22.25;;;;;;;;;;4989757;28;20031;-39
2022/02/15 00:27:48;;;;;;;193.70;22.85;;;;;;;;;;4989612;28;20064;-39
2022/02/15 00:30:15;;;;;;;231.30;26.40;;;;;;;;;;4989184;28;20035;-38
2022/02/15 00:32:42;;;;;;;249.48;26.67;;;;;;;;;;4990552;28;20047;-39
2022/02/15 00:35:09;;;;;;;226.52;27.40;;;;;;;;;;4991080;28;20109;-39
2022/02/15 00:37:36;;;;;;;289.48;32.35;;;;;;;;;;4972862;28;20056;-39
2022/02/15 00:40:04;;;;;;;286.58;33.05;;;;;;;;;;4990453;28;20089;-39
2022/02/15 00:42:31;;;;;;;335.90;33.95;;;;;;;;;;4990636;28;20030;-39
2022/02/15 00:44:58;;;;;;;355.85;37.05;;;;;;;;;;4990506;28;20030;-38
2022/02/15 00:47:25;;;;;;;323.55;35.50;;;;;;;;;;4991184;28;20066;-38
2022/02/15 00:49:52;;;;;;;275.20;31.83;;;;;;;;;;4991168;28;20046;-38
2022/02/15 00:52:19;;;;;;;274.73;30.60;;;;;;;;;;4991795;28;20034;-37
2022/02/15 00:54:46;;;;;;;241.13;29.85;;;;;;;;;;4990774;28;20030;-38
2022/02/15 00:57:15;;;;;;;257.55;30.42;;;;;;;;;;4991844;28;20033;-37
2022/02/15 00:59:43;;;;;;;258.80;29.85;;;;;;;;;;4991184;28;20113;-38
2022/02/15 01:02:10;;;;;;;279.23;34.40;;;;;;;;;;4991328;28;20045;-39
2022/02/15 01:04:37;;;;;;;315.98;36.67;;;;;;;;;;4991128;28;20034;-39
2022/02/15 01:07:04;;;;;;;348.95;40.58;;;;;;;;;;4991564;28;20430;-39
2022/02/15 01:09:31;;;;;;;308.67;36.13;;;;;;;;;;4990645;28;20069;-39
2022/02/15 01:11:59;;;;;;;314.38;36.88;;;;;;;;;;4991996;28;20519;-39
2022/02/15 01:14:26;;;;;;;307.88;37.35;;;;;;;;;;4991883;28;20033;-39
2022/02/15 01:16:53;;;;;;;303.10;38.33;;;;;;;;;;4990053;28;20037;-40
2022/02/15 01:19:20;;;;;;;352.35;43.40;;;;;;;;;;4990132;28;20026;-40
2022/02/15 01:21:47;;;;;;;343.70;40.35;;;;;;;;;;4990309;28;20117;-40
2022/02/15 01:24:14;;;;;;;303.10;39.58;;;;;;;;;;4985762;28;20027;-38
2022/02/15 01:26:41;;;;;;;276.75;37.45;;;;;;;;;;4989820;28;20126;-38
2022/02/15 01:29:08;;;;;;;255.35;36.20;;;;;;;;;;4988073;28;20077;-39
2022/02/15 01:31:36;;;;;;;194.27;27.88;;;;;;;;;;4988766;28;20047;-38
2022/02/15 01:34:03;;;;;;;206.13;28.27;;;;;;;;;;4989436;28;20077;-38
2022/02/15 01:36:30;;;;;;;175.32;29.98;;;;;;;;;;4986386;28;20042;-37
2022/02/15 01:38:57;;;;;;;170.13;23.83;;;;;;;;;;4989972;28;20073;-36
2022/02/15 01:41:24;;;;;;;175.30;27.73;;;;;;;;;;4986996;28;20494;-36
2022/02/15 01:43:51;;;;;;;152.95;25.35;;;;;;;;;;4990975;28;20477;-36
2022/02/15 01:46:21;;;;;;;161.77;23.25;;;;;;;;;;4991502;28;20038;-38
2022/02/15 01:48:49;;;;;;;154.93;24.48;;;;;;;;;;4992245;28;20027;-37
2022/02/15 01:51:16;;;;;;;133.48;25.00;;;;;;;;;;4991351;28;20042;-37
2022/02/15 01:53:44;;;;;;;135.98;22.00;;;;;;;;;;4991539;28;20540;-37
2022/02/15 01:56:12;;;;;;;135.43;22.65;;;;;;;;;;4991260;28;20026;-37
2022/02/15 01:58:40;;;;;;;132.18;21.65;;;;;;;;;;4992156;28;20121;-38
2022/02/15 02:01:07;;;;;;;139.93;22.17;;;;;;;;;;4992673;28;20041;-38
2022/02/15 02:03:35;;;;;;;145.13;20.52;;;;;;;;;;4988474;28;20026;-37
2022/02/15 02:06:02;;;;;;;122.05;22.40;;;;;;;;;;4989299;28;20038;-37
2022/02/15 02:08:31;;;;;;;125.40;20.13;;;;;;;;;;4993159;28;20057;-37
2022/02/15 02:11:00;;;;;;;140.50;22.67;;;;;;;;;;4995321;28;20181;-36
2022/02/15 02:13:28;;;;;;;106.22;20.25;;;;;;;;;;4993555;28;20461;-36
2022/02/15 02:15:55;;;;;;;101.20;19.17;;;;;;;;;;4995380;28;20033;-36
2022/02/15 02:18:22;;;;;;;104.60;18.58;;;;;;;;;;4994828;28;20033;-36
2022/02/15 02:20:49;;;;;;;107.43;18.80;;;;;;;;;;4994982;28;20145;-36
2022/02/15 02:23:18;;;;;;;91.75;18.23;;;;;;;;;;4995470;28;20537;-36
2022/02/15 02:25:45;;;;;;;102.00;18.30;;;;;;;;;;4995639;28;20389;-36
2022/02/15 02:28:12;;;;;;;98.68;17.55;;;;;;;;;;4995062;28;20026;-36
2022/02/15 02:30:39;;;;;;;97.15;16.95;;;;;;;;;;4995435;28;20022;-36
2022/02/15 02:33:06;;;;;;;90.47;17.48;;;;;;;;;;4994451;28;20058;-37
2022/02/15 02:35:35;;;;;;;77.30;16.50;;;;;;;;;;4995423;28;20018;-37
2022/02/15 02:38:02;;;;;;;79.28;15.35;;;;;;;;;;4995273;28;20027;-37
2022/02/15 02:40:29;;;;;;;89.72;16.08;;;;;;;;;;4994408;28;20034;-37
2022/02/15 02:42:56;;;;;;;89.93;16.00;;;;;;;;;;4995171;28;20030;-37
2022/02/15 02:45:23;;;;;;;85.80;16.15;;;;;;;;;;4994705;28;20025;-37
2022/02/15 02:47:52;;;;;;;91.75;16.60;;;;;;;;;;4995107;28;20041;-37
2022/02/15 02:50:20;;;;;;;86.35;16.40;;;;;;;;;;4994310;28;20038;-37
2022/02/15 02:52:47;;;;;;;121.43;19.95;;;;;;;;;;4976709;28;20401;-37
2022/02/15 02:55:14;;;;;;;108.18;18.10;;;;;;;;;;4977041;28;20042;-37
2022/02/15 02:57:41;;;;;;;96.13;17.25;;;;;;;;;;4994811;28;20478;-37
2022/02/15 03:00:12;;;;;;;91.93;15.15;;;;;;;;;;4994116;28;20054;-37
2022/02/15 03:02:39;;;;;;;77.97;15.38;;;;;;;;;;4994902;28;20110;-37
2022/02/15 03:05:07;;;;;;;72.45;13.88;;;;;;;;;;4994354;28;20120;-37
2022/02/15 03:07:34;;;;;;;73.65;13.25;;;;;;;;;;4992455;28;20074;-37
2022/02/15 03:10:01;;;;;;;87.00;14.27;;;;;;;;;;4994573;28;20478;-37
2022/02/15 03:12:28;;;;;;;58.58;13.32;;;;;;;;;;4991732;28;20085;-37
2022/02/15 03:14:55;;;;;;;69.90;13.63;;;;;;;;;;4994587;28;20033;-37
2022/02/15 03:17:22;;;;;;;73.07;14.50;;;;;;;;;;4993457;28;20397;-37
2022/02/15 03:19:51;;;;;;;58.35;10.38;;;;;;;;;;4993677;28;20116;-37
2022/02/15 03:22:19;;;;;;;55.97;11.45;;;;;;;;;;4993670;28;20481;-37
2022/02/15 03:24:46;;;;;;;62.25;12.55;;;;;;;;;;4993404;28;20022;-37
2022/02/15 03:27:13;;;;;;;77.35;13.55;;;;;;;;;;4993711;28;20034;-37
2022/02/15 03:29:40;;;;;;;91.78;14.27;;;;;;;;;;4993338;28;20077;-37
2022/02/15 03:32:08;;;;;;;80.85;13.32;;;;;;;;;;4993793;28;20050;-37
2022/02/15 03:34:35;;;;;;;114.60;16.88;;;;;;;;;;4992668;28;20030;-37
2022/02/15 03:37:02;;;;;;;85.72;12.77;;;;;;;;;;4992965;28;20036;-37
2022/02/15 03:39:29;;;;;;;72.55;12.00;;;;;;;;;;4992574;28;20481;-37
2022/02/15 03:44:41;;;;;;;62.38;10.98;;;;;;;;;;4992476;28;20080;-37
2022/02/15 03:47:09;;;;;;;68.30;9.88;;;;;;;;;;4993727;28;20117;-37
2022/02/15 03:49:36;;;;;;;74.97;11.00;;;;;;;;;;4991837;28;20041;-37
2022/02/15 03:52:04;;;;;;;104.13;15.15;;;;;;;;;;4993667;28;20073;-37
2022/02/15 03:54:31;;;;;;;94.10;13.13;;;;;;;;;;4993212;28;20026;-38
2022/02/15 03:56:58;;;;;;;104.82;15.45;;;;;;;;;;4992665;28;20022;-38
2022/02/15 03:59:25;;;;;;;114.00;16.33;;;;;;;;;;4993052;28;20367;-38
2022/02/15 04:01:52;;;;;;;106.50;14.52;;;;;;;;;;4992833;28;20048;-38
2022/02/15 04:04:19;;;;;;;107.28;14.57;;;;;;;;;;4992412;28;20049;-38
2022/02/15 04:06:46;;;;;;;153.52;20.02;;;;;;;;;;4992843;28;20026;-37
2022/02/15 04:09:13;;;;;;;223.27;25.40;;;;;;;;;;4992192;28;20050;-37
2022/02/15 04:11:40;;;;;;;152.30;20.25;;;;;;;;;;4992005;28;20097;-38
2022/02/15 04:14:07;;;;;;;184.60;21.70;;;;;;;;;;4993221;28;20618;-37
2022/02/15 04:16:35;;;;;;;140.93;18.13;;;;;;;;;;4992396;28;20062;-36
2022/02/15 04:19:02;;;;;;;139.77;17.00;;;;;;;;;;4992722;28;20046;-36
2022/02/15 04:21:29;;;;;;;111.40;14.07;;;;;;;;;;4991582;28;20022;-37
2022/02/15 04:23:56;;;;;;;87.65;14.20;;;;;;;;;;4993305;28;20019;-36
2022/02/15 04:26:23;;;;;;;106.03;14.88;;;;;;;;;;4992515;28;20023;-36
2022/02/15 04:28:50;;;;;;;71.95;11.63;;;;;;;;;;4992510;28;20037;-37
2022/02/15 04:31:17;;;;;;;77.40;10.73;;;;;;;;;;4991412;28;20038;-37
2022/02/15 04:33:44;;;;;;;68.32;10.85;;;;;;;;;;4992831;28;20030;-37
2022/02/15 04:36:11;;;;;;;69.68;10.98;;;;;;;;;;4991946;28;20049;-37
2022/02/15 04:38:38;;;;;;;59.10;10.00;;;;;;;;;;4992294;28;20073;-38
2022/02/15 04:41:05;;;;;;;56.97;8.98;;;;;;;;;;4992405;28;20033;-38
2022/02/15 04:43:33;;;;;;;59.67;8.38;;;;;;;;;;4991756;28;20145;-38
2022/02/15 04:46:00;;;;;;;64.57;8.90;;;;;;;;;;4992151;28;20111;-38
2022/02/15 04:48:27;;;;;;;52.88;8.93;;;;;;;;;;4990863;28;20026;-38
2022/02/15 04:50:54;;;;;;;47.40;8.18;;;;;;;;;;4991818;28;20041;-38
2022/02/15 04:53:21;;;;;;;50.15;7.80;;;;;;;;;;4992749;28;20081;-38
2022/02/15 04:55:48;;;;;;;52.78;8.13;;;;;;;;;;4991464;28;20440;-38
2022/02/15 04:58:15;;;;;;;50.58;8.60;;;;;;;;;;4991769;28;20086;-38
2022/02/15 05:00:42;;;;;;;37.03;7.10;;;;;;;;;;4991933;28;20033;-38
2022/02/15 05:03:09;;;;;;;34.58;7.15;;;;;;;;;;4991979;28;20026;-37
2022/02/15 05:05:36;;;;;;;36.97;7.32;;;;;;;;;;4991401;28;20023;-38
2022/02/15 05:08:03;;;;;;;38.65;7.15;;;;;;;;;;4991679;28;20038;-38
2022/02/15 05:10:30;;;;;;;37.45;7.50;;;;;;;;;;4991950;28;20050;-38
2022/02/15 05:12:57;;;;;;;47.70;7.45;;;;;;;;;;4992123;28;20034;-38
2022/02/15 05:15:24;;;;;;;42.33;7.10;;;;;;;;;;4991569;28;20396;-39
2022/02/15 05:17:51;;;;;;;30.80;6.38;;;;;;;;;;4995557;28;20052;-38
2022/02/15 05:20:18;;;;;;;27.25;6.00;;;;;;;;;;4996285;28;20030;-38
2022/02/15 05:22:46;;;;;;;41.38;7.30;;;;;;;;;;4995531;28;20485;-38
2022/02/15 05:25:14;;;;;;;33.63;5.50;;;;;;;;;;4996508;28;20097;-38
2022/02/15 05:27:42;;;;;;;51.10;7.75;;;;;;;;;;4994811;28;20073;-38
2022/02/15 05:30:09;;;;;;;52.78;8.45;;;;;;;;;;4995662;28;20046;-38
2022/02/15 05:32:36;;;;;;;40.95;6.53;;;;;;;;;;4995802;28;20070;-38
2022/02/15 05:35:03;;;;;;;32.03;7.00;;;;;;;;;;4995432;28;20023;-38
2022/02/15 05:37:30;;;;;;;31.65;6.63;;;;;;;;;;4995299;28;20165;-38
2022/02/15 05:39:57;;;;;;;30.13;5.63;;;;;;;;;;4995456;28;20026;-38
2022/02/15 05:42:24;;;;;;;30.33;6.25;;;;;;;;;;4996211;28;20026;-38
2022/02/15 05:44:51;;;;;;;35.80;6.55;;;;;;;;;;4995149;28;20525;-38
2022/02/15 05:47:18;;;;;;;32.17;5.95;;;;;;;;;;4995109;28;20072;-37
2022/02/15 05:52:30;;;;;;;28.98;5.20;;;;;;;;;;4995542;28;20488;-37
2022/02/15 05:54:57;;;;;;;25.33;5.57;;;;;;;;;;4995430;28;20039;-37
2022/02/15 05:57:24;;;;;;;26.50;5.63;;;;;;;;;;4994786;28;20081;-37
2022/02/15 05:59:51;;;;;;;24.30;5.20;;;;;;;;;;4994604;28;20389;-37
2022/02/15 06:02:18;;;;;;;23.30;5.22;;;;;;;;;;4993838;28;20049;-37
2022/02/15 06:04:45;;;;;;;25.33;5.45;;;;;;;;;;4994535;28;20106;-37
2022/02/15 06:07:12;;;;;;;25.48;5.47;;;;;;;;;;4995636;28;20029;-37
2022/02/15 06:09:39;;;;;;;29.80;5.72;;;;;;;;;;4994180;28;20500;-37
2022/02/15 06:12:07;;;;;;;28.42;5.00;;;;;;;;;;4995343;28;20046;-37
2022/02/15 06:14:34;;;;;;;26.17;4.95;;;;;;;;;;4994423;28;20038;-37
2022/02/15 06:17:01;;;;;;;27.17;5.47;;;;;;;;;;4995603;28;20079;-37
2022/02/15 06:19:28;;;;;;;25.60;5.22;;;;;;;;;;4994304;28;20023;-37
2022/02/15 06:21:55;;;;;;;27.90;5.97;;;;;;;;;;4977702;28;20082;-37
2022/02/15 06:24:23;;;;;;;32.80;5.45;;;;;;;;;;4994992;28;20054;-36
2022/02/15 06:26:50;;;;;;;28.52;5.13;;;;;;;;;;4993862;28;20041;-36
2022/02/15 06:29:17;;;;;;;24.42;5.32;;;;;;;;;;4993381;28;20034;-36
2022/02/15 06:31:44;;;;;;;28.00;6.03;;;;;;;;;;4993991;28;20042;-36
2022/02/15 06:34:11;;;;;;;27.58;5.35;;;;;;;;;;4995213;28;20030;-39
2022/02/15 06:36:38;;;;;;;23.40;5.45;;;;;;;;;;4993861;28;20034;-36
2022/02/15 06:39:09;;;;;;;21.13;4.25;;;;;;;;;;4995160;28;20027;-37
2022/02/15 06:41:37;;;;;;;22.52;5.05;;;;;;;;;;4993765;28;20045;-37
2022/02/15 06:44:04;;;;;;;29.65;5.53;;;;;;;;;;4994555;28;20077;-37
2022/02/15 06:46:32;;;;;;;25.48;5.50;;;;;;;;;;4993676;28;20035;-37
2022/02/15 06:48:59;;;;;;;21.15;4.68;;;;;;;;;;4994885;28;20057;-37
2022/02/15 06:51:26;;;;;;;24.00;4.78;;;;;;;;;;4993821;28;20424;-37
2022/02/15 06:53:53;;;;;;;25.17;4.72;;;;;;;;;;4994406;28;20033;-37
2022/02/15 06:56:20;;;;;;;21.70;4.80;;;;;;;;;;4993418;28;20037;-37
2022/02/15 06:58:47;;;;;;;21.83;5.00;;;;;;;;;;4994695;28;20109;-37
2022/02/15 07:01:14;;;;;;;17.83;4.22;;;;;;;;;;4993278;28;20027;-36
2022/02/15 07:03:41;;;;;;;24.60;4.88;;;;;;;;;;4994070;28;20058;-37
2022/02/15 07:06:08;;;;;;;24.08;5.05;;;;;;;;;;4993994;28;20038;-37
2022/02/15 07:08:35;;;;;;;23.25;4.55;;;;;;;;;;4993817;28;20500;-36
2022/02/15 07:11:02;;;;;;;18.27;4.50;;;;;;;;;;4994080;28;20478;-37
2022/02/15 07:13:30;;;;;;;19.60;4.72;;;;;;;;;;4991842;28;20070;-37
2022/02/15 07:15:57;;;;;;;16.30;4.25;;;;;;;;;;4997790;28;20120;-37
2022/02/15 07:18:26;;;;;;;21.70;5.43;;;;;;;;;;5012711;28;20026;-37
2022/02/15 07:20:53;;;;;;;22.75;3.53;;;;;;;;;;5013457;28;20061;-37
2022/02/15 07:23:20;;;;;;;18.08;3.97;;;;;;;;;;5012621;28;20033;-37
2022/02/15 07:25:47;;;;;;;16.55;4.10;;;;;;;;;;5013526;28;20068;-37
2022/02/15 07:28:15;;;;;;;18.60;4.53;;;;;;;;;;5012996;28;20497;-36
2022/02/15 07:30:42;;;;;;;15.68;4.53;;;;;;;;;;5012715;28;20057;-37
2022/02/15 07:33:09;;;;;;;19.88;3.88;;;;;;;;;;5013027;28;20050;-37
2022/02/15 07:35:36;;;;;;;23.33;4.30;;;;;;;;;;5012847;28;20017;-37
2022/02/15 07:38:03;;;;;;;15.57;4.10;;;;;;;;;;5012657;28;20034;-37
2022/02/15 07:40:30;;;;;;;17.27;4.50;;;;;;;;;;5012016;28;20053;-37
2022/02/15 07:42:57;;;;;;;18.42;3.97;;;;;;;;;;5013127;28;20030;-37
2022/02/15 07:45:24;;;;;;;16.85;4.32;;;;;;;;;;5012596;28;20056;-37
2022/02/15 07:47:52;;;;;;;24.48;4.60;;;;;;;;;;5013129;28;20022;-37
2022/02/15 07:50:20;;;;;;;19.70;5.35;;;;;;;;;;5011970;28;20084;-37
2022/02/15 07:52:48;;;;;;;19.65;5.72;;;;;;;;;;5013164;28;20026;-37
2022/02/15 07:55:15;;;;;;;27.70;6.10;;;;;;;;;;5012022;28;20018;-37
2022/02/15 07:57:42;;;;;;;20.55;6.03;;;;;;;;;;5013081;28;20026;-37
2022/02/15 08:00:09;;;;;;;26.42;6.32;;;;;;;;;;5012570;28;20369;-37
2022/02/15 08:02:37;;;;;;;18.92;5.97;;;;;;;;;;5012728;28;20057;-37
2022/02/15 08:05:04;;;;;;;24.48;6.80;;;;;;;;;;5011593;28;20104;-37
2022/02/15 08:07:33;;;;;;;20.75;6.22;;;;;;;;;;5013007;28;20030;-37
2022/02/15 08:10:02;;;;;;;26.27;7.15;;;;;;;;;;5011916;28;20764;-37
2022/02/15 08:12:29;;;;;;;20.80;6.65;;;;;;;;;;5012297;28;20548;-36
2022/02/15 08:14:56;;;;;;;25.48;7.07;;;;;;;;;;5012481;28;20036;-36
2022/02/15 08:17:23;;;;;;;25.73;6.90;;;;;;;;;;5012050;28;20033;-36
2022/02/15 08:19:50;;;;;;;23.05;7.82;;;;;;;;;;5012115;28;20014;-36
2022/02/15 08:22:19;;;;;;;24.73;7.57;;;;;;;;;;5012302;28;20038;-36
2022/02/15 08:24:46;;;;;;;24.77;7.85;;;;;;;;;;5012069;28;20045;-37
2022/02/15 08:27:14;;;;;;;28.35;7.50;;;;;;;;;;5012846;28;20034;-36
2022/02/15 08:29:41;;;;;;;30.60;8.32;;;;;;;;;;5011379;28;20033;-37
2022/02/15 08:32:08;;;;;;;33.63;8.25;;;;;;;;;;5011543;28;20045;-37
2022/02/15 08:34:35;;;;;;;33.40;8.88;;;;;;;;;;4994421;28;20096;-37
2022/02/15 08:37:03;;;;;;;30.50;8.55;;;;;;;;;;5011186;28;20061;-37
2022/02/15 08:39:30;;;;;;;29.40;9.15;;;;;;;;;;5012453;28;20018;-37
2022/02/15 08:41:57;;;;;;;28.95;8.13;;;;;;;;;;5011454;28;20072;-37
2022/02/15 08:44:24;;;;;;;31.23;8.30;;;;;;;;;;5012112;28;20481;-37
2022/02/15 08:46:53;;;;;;;29.08;8.55;;;;;;;;;;5010936;28;20400;-36
2022/02/15 08:49:20;;;;;;;37.40;9.63;;;;;;;;;;5011681;28;20059;-37
2022/02/15 08:51:47;;;;;;;32.53;8.00;;;;;;;;;;5010576;28;20034;-37
2022/02/15 08:54:14;;;;;;;44.75;9.43;;;;;;;;;;5012428;28;20022;-37
2022/02/15 08:56:41;;;;;;;38.03;8.93;;;;;;;;;;5011101;28;20033;-37
2022/02/15 08:59:08;;;;;;;40.35;9.50;;;;;;;;;;5011601;28;20558;-37
2022/02/15 09:01:35;;;;;;;33.30;9.25;;;;;;;;;;5011238;28;20033;-37
2022/02/15 09:04:02;;;;;;;31.52;8.43;;;;;;;;;;5012212;28;20477;-36
2022/02/15 09:06:29;;;;;;;27.92;8.88;;;;;;;;;;5010678;28;20021;-37
2022/02/15 09:08:56;;;;;;;33.90;10.07;;;;;;;;;;5012248;28;20026;-37
2022/02/15 09:11:23;;;;;;;38.08;9.38;;;;;;;;;;5011468;28;20188;-37
2022/02/15 09:13:50;;;;;;;27.65;8.63;;;;;;;;;;5011134;28;20022;-37
2022/02/15 09:16:17;;;;;;;32.20;8.73;;;;;;;;;;5012181;28;20370;-37
2022/02/15 09:18:43;;;;;;;35.90;9.18;;;;;;;;;;4992583;28;20085;-37
2022/02/15 09:21:10;;;;;;;40.20;9.48;;;;;;;;;;5012156;28;20184;-37
2022/02/15 09:23:37;;;;;;;55.00;9.88;;;;;;;;;;5010808;28;20033;-37
2022/02/15 09:26:04;;;;;;;52.05;11.02;;;;;;;;;;5011645;28;20487;-37
2022/02/15 09:28:31;;;;;;;46.40;10.80;;;;;;;;;;5011614;28;20052;-37
2022/02/15 09:30:58;;;;;;;62.75;12.70;;;;;;;;;;5010805;28;20030;-37
2022/02/15 09:33:25;;;;;;;67.90;11.45;;;;;;;;;;5010982;28;20048;-37
2022/02/15 09:35:53;;;;;;;58.33;12.25;;;;;;;;;;5011984;28;20460;-36
2022/02/15 09:38:20;;;;;;;73.32;12.30;;;;;;;;;;5010894;28;20097;-37
2022/02/15 09:40:50;;;;;;;72.93;11.93;;;;;;;;;;5011552;28;20513;-37
2022/02/15 09:43:17;;;;;;;113.75;14.45;;;;;;;;;;5010395;28;20036;-37
2022/02/15 09:45:48;;;;;;;217.10;21.38;;;;;;;;;;5011315;28;20037;-37
2022/02/15 09:48:18;;;;;;;306.85;31.05;;;;;;;;;;4992738;28;20042;-36
2022/02/15 09:50:45;;;;;;;278.23;27.55;;;;;;;;;;5011363;28;20048;-36
2022/02/15 09:53:12;;;;;;;284.33;29.10;;;;;;;;;;5009218;28;20076;-36
2022/02/15 09:55:39;;;;;;;428.67;36.75;;;;;;;;;;5009488;28;20489;-36
2022/02/15 09:58:06;;;;;;;482.33;40.55;;;;;;;;;;5011006;28;20034;-36
2022/02/15 10:00:34;;;;;;;516.72;49.05;;;;;;;;;;5010604;28;20114;-36
2022/02/15 10:03:04;;;;;;;417.10;38.83;;;;;;;;;;5012114;28;20038;-36
2022/02/15 10:05:34;;;;;;;303.88;31.00;;;;;;;;;;5014550;28;20037;-36
2022/02/15 10:08:01;;;;;;;327.35;30.65;;;;;;;;;;5014546;28;20030;-36
2022/02/15 10:10:33;;;;;;;338.92;30.35;;;;;;;;;;5014299;28;20033;-36
2022/02/15 10:13:08;;;;;;;288.83;28.65;;;;;;;;;;5014392;28;20049;-36
2022/02/15 10:15:37;;;;;;;232.75;24.67;;;;;;;;;;5013654;28;20033;-36
2022/02/15 10:18:12;;;;;;;242.32;24.63;;;;;;;;;;5014805;28;20477;-36
2022/02/15 10:20:42;;;;;;;211.30;21.67;;;;;;;;;;5014348;28;20033;-36
2022/02/15 10:23:20;;;;;;;216.32;21.25;;;;;;;;;;4997308;28;20136;-36
2022/02/15 10:25:48;;;;;;;281.80;26.75;;;;;;;;;;5013610;28;20029;-36
2022/02/15 10:28:16;;;;;;;217.32;23.95;;;;;;;;;;5015079;28;20018;-36
2022/02/15 10:30:44;;;;;;;221.52;21.77;;;;;;;;;;5014092;28;20034;-36
2022/02/15 10:33:11;;;;;;;164.90;19.35;;;;;;;;;;5014179;28;20050;-36
2022/02/15 10:35:40;;;;;;;350.83;33.00;;;;;;;;;;5014030;28;20068;-36
2022/02/15 10:38:09;;;;;;;333.13;33.25;;;;;;;;;;5013793;28;20033;-36
2022/02/15 10:40:36;;;;;;;497.65;47.40;;;;;;;;;;5014034;28;20034;-36
2022/02/15 10:43:03;;;;;;;376.70;34.00;;;;;;;;;;5014421;28;20065;-36
2022/02/15 10:45:30;;;;;;;265.67;25.80;;;;;;;;;;5013923;28;20361;-36
2022/02/15 10:48:06;;;;;;;193.48;19.65;;;;;;;;;;5013753;28;20091;-37
2022/02/15 10:50:36;;;;;;;195.93;20.15;;;;;;;;;;5013592;28;20088;-37
2022/02/15 10:53:03;;;;;;;130.95;16.77;;;;;;;;;;5013962;28;20475;-37
2022/02/15 10:55:31;;;;;;;141.82;17.13;;;;;;;;;;5013426;28;20112;-37
2022/02/15 10:57:59;;;;;;;120.88;14.25;;;;;;;;;;5013776;28;20369;-37
2022/02/15 11:00:26;;;;;;;96.07;13.25;;;;;;;;;;5014326;28;20034;-37
2022/02/15 11:02:54;;;;;;;99.70;13.40;;;;;;;;;;5013297;28;20030;-37
2022/02/15 11:05:21;;;;;;;112.88;13.60;;;;;;;;;;5012963;28;20022;-37
2022/02/15 11:07:48;;;;;;;107.20;13.30;;;;;;;;;;5013343;28;20389;-37
2022/02/15 11:10:23;;;;;;;73.43;12.05;;;;;;;;;;5013366;28;20113;-37
2022/02/15 11:12:50;;;;;;;116.30;13.85;;;;;;;;;;5013614;28;20025;-37
2022/02/15 11:15:26;;;;;;;93.32;11.77;;;;;;;;;;5012304;28;20018;-37
2022/02/15 11:17:54;;;;;;;252.98;23.67;;;;;;;;;;5013477;28;20392;-37
2022/02/15 11:20:22;;;;;;;89.53;11.40;;;;;;;;;;5013783;28;20120;-37
2022/02/15 11:22:52;;;;;;;65.60;10.15;;;;;;;;;;5010643;28;20033;-37
2022/02/15 11:25:32;;;;;;;56.97;8.00;;;;;;;;;;5012234;28;20034;-37
2022/02/15 11:28:11;;;;;;;54.95;7.65;;;;;;;;;;5013127;28;20022;-38
2022/02/15 11:30:57;;;;;;;100.15;11.60;;;;;;;;;;5012547;28;20040;-38
2022/02/15 11:33:26;;;;;;;122.47;12.60;;;;;;;;;;5012934;28;20521;-37
2022/02/15 11:35:56;;;;;;;75.45;9.95;;;;;;;;;;5013175;28;20405;-38
2022/02/15 11:38:24;;;;;;;79.97;10.40;;;;;;;;;;5012603;28;20041;-37
2022/02/15 11:41:16;;;;;;;70.45;9.57;;;;;;;;;;5013597;28;20030;-37
2022/02/15 11:43:54;;;;;;;65.65;8.70;;;;;;;;;;5008128;28;20077;-37
2022/02/15 11:46:43;;;;;;;63.95;8.20;;;;;;;;;;5012334;28;20038;-37
2022/02/15 11:49:15;;;;;;;98.00;9.73;;;;;;;;;;5011471;28;20042;-38
2022/02/15 11:51:42;;;;;;;81.77;9.70;;;;;;;;;;5012446;28;20046;-37
2022/02/15 11:54:14;;;;;;;75.88;9.63;;;;;;;;;;5012151;28;20319;-37
2022/02/15 11:56:46;;;;;;;114.18;9.07;;;;;;;;;;5012929;28;20027;-35
2022/02/15 11:59:17;;;;;;;64.10;8.25;;;;;;;;;;5012574;28;20424;-34
2022/02/15 12:01:44;;;;;;;157.15;14.23;;;;;;;;;;5012994;28;20555;-34
2022/02/15 12:04:12;;;;;;;124.38;13.45;;;;;;;;;;5012262;28;20026;-35
2022/02/15 12:06:40;;;;;;;172.48;16.63;;;;;;;;;;5013269;28;20444;-35
2022/02/15 12:09:10;;;;;;;158.85;13.05;;;;;;;;;;5012574;28;20452;-35
2022/02/15 12:11:38;;;;;;;68.78;8.80;;;;;;;;;;4995012;28;20042;-35
2022/02/15 12:14:06;;;;;;;64.85;7.68;;;;;;;;;;5012210;28;20022;-36
2022/02/15 12:16:47;;;;;;;81.22;8.95;;;;;;;;;;5012561;28;20032;-36
2022/02/15 12:19:40;;;;;;;298.10;28.58;;;;;;;;;;5012587;28;20041;-36
2022/02/15 12:22:15;;;;;;;212.93;21.65;;;;;;;;;;5010046;28;20042;-36
2022/02/15 12:24:42;;;;;;;166.80;20.98;;;;;;;;;;5013020;28;20022;-36
2022/02/15 12:27:09;;;;;;;181.73;19.58;;;;;;;;;;5011722;28;20029;-36
2022/02/15 12:29:37;;;;;;;193.73;19.75;;;;;;;;;;5012198;28;20022;-35
2022/02/15 12:32:05;;;;;;;108.68;11.65;;;;;;;;;;5011975;28;20050;-35
2022/02/15 12:34:33;;;;;;;80.95;9.45;;;;;;;;;;5012619;28;20022;-35
2022/02/15 12:37:00;;;;;;;114.55;12.88;;;;;;;;;;5012183;28;20116;-35
2022/02/15 12:39:34;;;;;;;69.55;8.80;;;;;;;;;;5012798;28;20038;-35
2022/02/15 12:42:03;;;;;;;57.55;7.97;;;;;;;;;;5012467;28;20029;-35
2022/02/15 12:44:30;;;;;;;58.50;8.52;;;;;;;;;;5012403;28;20037;-35
2022/02/15 12:46:57;;;;;;;67.80;9.35;;;;;;;;;;5012546;28;20065;-35
2022/02/15 12:49:24;;;;;;;53.42;7.75;;;;;;;;;;5011535;28;20029;-35
2022/02/15 12:51:51;;;;;;;64.53;7.63;;;;;;;;;;5011953;28;20036;-35
2022/02/15 12:54:20;;;;;;;53.88;6.95;;;;;;;;;;5012126;28;20148;-35
2022/02/15 12:56:47;;;;;;;40.25;7.25;;;;;;;;;;5011436;28;20033;-35
2022/02/15 12:59:18;;;;;;;157.77;13.45;;;;;;;;;;5011721;28;20029;-35
2022/02/15 13:01:45;;;;;;;57.17;9.07;;;;;;;;;;5012289;28;20025;-35
2022/02/15 13:04:12;;;;;;;114.30;12.20;;;;;;;;;;5012313;28;20026;-35
2022/02/15 13:06:40;;;;;;;82.47;11.00;;;;;;;;;;5011580;28;20022;-35
2022/02/15 13:09:11;;;;;;;62.67;8.93;;;;;;;;;;5012209;28;20026;-35
2022/02/15 13:11:38;;;;;;;66.25;8.45;;;;;;;;;;5011018;28;20045;-35
2022/02/15 13:14:06;;;;;;;94.63;10.55;;;;;;;;;;5012057;28;20529;-34
2022/02/15 13:16:39;;;;;;;68.53;9.32;;;;;;;;;;5011317;28;20059;-35
2022/02/15 13:19:06;;;;;;;52.03;8.15;;;;;;;;;;4993653;28;20473;-35
2022/02/15 13:21:34;;;;;;;75.95;8.85;;;;;;;;;;5011851;28;20030;-35
2022/02/15 13:24:03;;;;;;;52.42;8.13;;;;;;;;;;5011310;28;20069;-35
2022/02/15 13:26:34;;;;;;;56.72;8.98;;;;;;;;;;5011970;28;20041;-35
2022/02/15 13:29:02;;;;;;;65.35;8.70;;;;;;;;;;5011509;28;20076;-35
2022/02/15 13:31:29;;;;;;;63.53;8.02;;;;;;;;;;5011264;28;20033;-35
2022/02/15 13:33:57;;;;;;;74.72;9.32;;;;;;;;;;5011786;28;20390;-35
2022/02/15 13:36:31;;;;;;;45.63;6.95;;;;;;;;;;5011239;28;20029;-35
2022/02/15 13:38:59;;;;;;;52.97;8.38;;;;;;;;;;5015641;28;20084;-35
2022/02/15 13:41:26;;;;;;;61.38;8.38;;;;;;;;;;5015949;28;20037;-35
2022/02/15 13:44:03;;;;;;;51.70;7.25;;;;;;;;;;4997071;28;20057;-35
2022/02/15 13:46:32;;;;;;;57.72;8.55;;;;;;;;;;5015845;28;20489;-35
2022/02/15 13:49:03;;;;;;;51.75;7.20;;;;;;;;;;5014840;28;20060;-35
2022/02/15 13:51:30;;;;;;;49.92;7.57;;;;;;;;;;5015322;28;20033;-35
2022/02/15 13:54:04;;;;;;;53.78;8.27;;;;;;;;;;5015515;28;20092;-35
2022/02/15 13:56:33;;;;;;;61.20;8.77;;;;;;;;;;5014515;28;20034;-35
2022/02/15 13:59:05;;;;;;;57.42;9.00;;;;;;;;;;5013416;28;20522;-36
2022/02/15 14:01:32;;;;;;;63.28;9.23;;;;;;;;;;5013675;28;20045;-35
2022/02/15 14:03:59;;;;;;;68.78;9.05;;;;;;;;;;5014488;28;20072;-35
2022/02/15 14:06:27;;;;;;;55.20;9.25;;;;;;;;;;5015159;28;20026;-36
2022/02/15 14:08:54;;;;;;;50.22;7.60;;;;;;;;;;4996481;28;20056;-36
2022/02/15 14:11:22;;;;;;;47.58;7.78;;;;;;;;;;5014238;28;20041;-36
2022/02/15 14:13:49;;;;;;;59.28;8.20;;;;;;;;;;5014616;28;20022;-36
2022/02/15 14:16:16;;;;;;;57.80;8.50;;;;;;;;;;5013915;28;20029;-37
2022/02/15 14:18:43;;;;;;;64.88;8.70;;;;;;;;;;5013579;28;20080;-35
2022/02/15 14:21:11;;;;;;;81.43;9.25;;;;;;;;;;5013304;28;20026;-36
2022/02/15 14:23:38;;;;;;;71.47;9.82;;;;;;;;;;5014049;28;20042;-35
2022/02/15 14:26:06;;;;;;;63.10;9.93;;;;;;;;;;5014348;28;20552;-35
2022/02/15 14:28:33;;;;;;;74.43;9.50;;;;;;;;;;5013865;28;20033;-38